createdAt,value
2018-01-05T00:00:27.119Z,98177.10
2018-01-05T00:01:33.126Z,98173.47
2018-01-05T00:02:39.113Z,98180.66
2018-01-05T00:03:45.353Z,98180.36
2018-01-05T00:04:51.935Z,98175.73
2018-01-05T00:05:57.941Z,98178.72
2018-01-05T00:07:03.800Z,98186.32
2018-01-05T00:08:10.240Z,98178.28
2018-01-05T00:09:16.388Z,98186.69
2018-01-05T00:10:22.643Z,98188.36
2018-01-05T00:11:28.573Z,98181.93
2018-01-05T00:12:37.113Z,98188.14
2018-01-05T00:13:43.316Z,98188.73
2018-01-05T00:14:49.553Z,98190.75
2018-01-05T00:15:55.801Z,98186.63
2018-01-05T00:17:04.031Z,98185.94
2018-01-05T00:18:10.266Z,98200.55
2018-01-05T00:19:16.474Z,98199.27
2018-01-05T00:20:22.657Z,98206.64
2018-01-05T00:21:28.614Z,98203.28
2018-01-05T00:22:34.601Z,98204.23
2018-01-05T00:23:39.833Z,98204.19
2018-01-05T00:24:46.016Z,98203.41
2018-01-05T00:25:52.202Z,98210.40
2018-01-05T00:27:00.437Z,98207.83
2018-01-05T00:28:06.635Z,98209.52
2018-01-05T00:29:12.881Z,98219.24
2018-01-05T00:30:19.079Z,98231.39
2018-01-05T00:31:25.255Z,98229.20
2018-01-05T00:32:31.502Z,98237.03
2018-01-05T00:33:38.519Z,98240.02
2018-01-05T00:34:44.667Z,98235.86
2018-01-05T00:35:50.795Z,98243.11
2018-01-05T00:36:56.933Z,98239.95
2018-01-05T00:38:03.162Z,98249.69
2018-01-05T00:39:09.354Z,98251.62
2018-01-05T00:40:15.649Z,98257.02
2018-01-05T00:41:22.057Z,98259.17
2018-01-05T00:42:28.234Z,98265.38
2018-01-05T00:43:34.492Z,98276.83
2018-01-05T00:44:40.852Z,98278.77
2018-01-05T00:45:47.346Z,98286.44
2018-01-05T00:46:54.546Z,98290.14
2018-01-05T00:48:00.909Z,98292.51
2018-01-05T00:49:07.304Z,98295.95
2018-01-05T00:50:13.588Z,98294.61
2018-01-05T00:51:19.489Z,98294.81
2018-01-05T00:52:25.844Z,98306.84
2018-01-05T00:53:32.012Z,98303.42
2018-01-05T00:54:44.228Z,98299.84
2018-01-05T00:55:50.147Z,98309.87
2018-01-05T00:56:56.276Z,98307.98
2018-01-05T00:58:02.171Z,98309.08
2018-01-05T00:59:08.385Z,98307.76
2018-01-05T01:00:14.504Z,98322.98
2018-01-05T01:01:20.374Z,98327.23
2018-01-05T01:02:25.838Z,98333.48
2018-01-05T01:03:32.042Z,98338.41
2018-01-05T01:04:37.697Z,98339.47
2018-01-05T01:05:43.780Z,98339.67
2018-01-05T01:06:49.928Z,98346.72
2018-01-05T01:07:55.883Z,98351.06
2018-01-05T01:09:02.089Z,98350.59
2018-01-05T01:10:08.164Z,98353.59
2018-01-05T01:11:14.355Z,98352.63
2018-01-05T01:12:20.582Z,98355.66
2018-01-05T01:13:26.722Z,98356.08
2018-01-05T01:14:33.740Z,98355.03
2018-01-05T01:15:39.900Z,98367.80
2018-01-05T01:16:46.100Z,98362.57
2018-01-05T01:17:52.272Z,98356.13
2018-01-05T01:18:58.436Z,98361.73
2018-01-05T01:20:04.578Z,98359.38
2018-01-05T01:21:12.649Z,98368.31
2018-01-05T01:22:18.221Z,98364.94
2018-01-05T01:23:24.417Z,98369.62
2018-01-05T01:24:30.596Z,98376.16
2018-01-05T01:25:36.774Z,98379.56
2018-01-05T01:26:43.442Z,98376.53
2018-01-05T01:27:55.710Z,98384.46
2018-01-05T01:29:01.863Z,98383.06
2018-01-05T01:30:08.125Z,98383.56
2018-01-05T01:31:14.009Z,98387.57
2018-01-05T01:32:20.217Z,98390.98
2018-01-05T01:33:26.395Z,98390.19
2018-01-05T01:34:32.658Z,98393.77
2018-01-05T01:35:38.867Z,98397.14
2018-01-05T01:36:44.752Z,98392.34
2018-01-05T01:37:50.856Z,98396.89
2018-01-05T01:38:57.131Z,98401.40
2018-01-05T01:40:03.004Z,98408.19
2018-01-05T01:41:09.177Z,98409.83
2018-01-05T01:42:15.360Z,98413.99
2018-01-05T01:43:21.272Z,98412.09
2018-01-05T01:44:26.758Z,98415.01
2018-01-05T01:45:32.664Z,98423.14
2018-01-05T01:46:38.888Z,98411.73
2018-01-05T01:47:51.067Z,98411.69
2018-01-05T01:49:00.162Z,98415.77
2018-01-05T01:50:06.362Z,98405.84
2018-01-05T01:51:12.629Z,98409.75
2018-01-05T01:52:18.901Z,98408.83
2018-01-05T01:53:25.117Z,98400.92
2018-01-05T01:54:31.286Z,98398.69
2018-01-05T01:55:37.430Z,98409.47
2018-01-05T01:56:43.631Z,98407.73
2018-01-05T01:57:53.593Z,98405.64
2018-01-05T01:59:00.253Z,98401.34
2018-01-05T02:00:06.454Z,98403.70
2018-01-05T02:01:12.491Z,98403.36
2018-01-05T02:02:18.452Z,98410.31
2018-01-05T02:03:24.839Z,98405.55
2018-01-05T02:04:31.004Z,98408.58
2018-01-05T02:05:41.141Z,98403.11
2018-01-05T02:06:47.302Z,98413.27
2018-01-05T02:07:53.700Z,98420.01
2018-01-05T02:08:59.899Z,98412.34
2018-01-05T02:10:06.140Z,98411.66
2018-01-05T02:11:12.063Z,98418.11
2018-01-05T02:12:18.263Z,98424.91
2018-01-05T02:13:24.472Z,98420.14
2018-01-05T02:14:30.626Z,98420.05
2018-01-05T02:15:36.842Z,98419.20
2018-01-05T02:16:42.774Z,98417.47
2018-01-05T02:17:48.949Z,98413.47
2018-01-05T02:18:55.118Z,98420.12
2018-01-05T02:20:05.492Z,98419.83
2018-01-05T02:21:19.286Z,98417.42
2018-01-05T02:22:25.466Z,98424.80
2018-01-05T02:23:31.385Z,98433.41
2018-01-05T02:24:38.109Z,98431.30
2018-01-05T02:25:44.157Z,98434.53
2018-01-05T02:26:50.417Z,98436.10
2018-01-05T02:27:56.876Z,98439.27
2018-01-05T02:29:03.054Z,98437.95
2018-01-05T02:30:09.256Z,98444.05
2018-01-05T02:31:15.470Z,98447.86
2018-01-05T02:32:21.798Z,98446.31
2018-01-05T02:33:27.954Z,98447.00
2018-01-05T02:34:34.172Z,98450.23
2018-01-05T02:35:40.348Z,98444.50
2018-01-05T02:36:46.241Z,98445.58
2018-01-05T02:37:52.467Z,98447.52
2018-01-05T02:38:58.673Z,98452.16
2018-01-05T02:40:04.573Z,98454.36
2018-01-05T02:41:10.768Z,98453.52
2018-01-05T02:42:16.921Z,98449.48
2018-01-05T02:43:23.129Z,98454.77
2018-01-05T02:44:29.313Z,98446.47
2018-01-05T02:45:34.856Z,98450.58
2018-01-05T02:46:41.054Z,98459.34
2018-01-05T02:47:46.964Z,98470.98
2018-01-05T02:48:53.390Z,98470.94
2018-01-05T02:49:59.261Z,98474.74
2018-01-05T02:51:05.444Z,98482.73
2018-01-05T02:52:11.656Z,98486.52
2018-01-05T02:53:17.878Z,98489.67
2018-01-05T02:54:24.070Z,98485.64
2018-01-05T02:55:30.254Z,98489.97
2018-01-05T02:56:36.967Z,98487.41
2018-01-05T02:57:43.160Z,98480.12
2018-01-05T02:58:49.132Z,98485.11
2018-01-05T02:59:55.167Z,98491.37
2018-01-05T03:01:04.118Z,98492.78
2018-01-05T03:02:10.296Z,98499.63
2018-01-05T03:03:16.220Z,98483.75
2018-01-05T03:04:22.485Z,98485.08
2018-01-05T03:05:28.708Z,98486.34
2018-01-05T03:06:34.908Z,98488.99
2018-01-05T03:07:41.088Z,98490.69
2018-01-05T03:08:47.259Z,98493.53
2018-01-05T03:09:53.449Z,98483.09
2018-01-05T03:10:59.920Z,98478.30
2018-01-05T03:12:05.747Z,98474.23
2018-01-05T03:13:11.374Z,98477.11
2018-01-05T03:14:18.542Z,98487.20
2018-01-05T03:15:24.675Z,98485.44
2018-01-05T03:16:31.203Z,98489.55
2018-01-05T03:17:37.449Z,98492.70
2018-01-05T03:18:43.629Z,98485.22
2018-01-05T03:19:49.776Z,98491.01
2018-01-05T03:20:55.965Z,98487.67
2018-01-05T03:22:02.175Z,98493.05
2018-01-05T03:23:08.335Z,98495.38
2018-01-05T03:24:17.837Z,98503.83
2018-01-05T03:25:23.971Z,98510.24
2018-01-05T03:26:30.121Z,98510.89
2018-01-05T03:27:36.423Z,98506.33
2018-01-05T03:28:42.625Z,98504.98
2018-01-05T03:29:48.106Z,98506.79
2018-01-05T03:30:54.303Z,98507.41
2018-01-05T03:32:00.131Z,98518.84
2018-01-05T03:33:06.335Z,98524.41
2018-01-05T03:34:12.578Z,98524.56
2018-01-05T03:35:18.758Z,98525.44
2018-01-05T03:36:24.207Z,98517.61
2018-01-05T03:37:30.103Z,98521.11
2018-01-05T03:38:36.311Z,98516.53
2018-01-05T03:39:42.488Z,98523.06
2018-01-05T03:40:48.356Z,98517.57
2018-01-05T03:41:55.337Z,98525.25
2018-01-05T03:43:01.097Z,98519.61
2018-01-05T03:44:07.247Z,98525.86
2018-01-05T03:45:13.473Z,98524.83
2018-01-05T03:46:19.627Z,98523.91
2018-01-05T03:47:26.683Z,98525.33
2018-01-05T03:48:34.094Z,98523.45
2018-01-05T03:49:40.304Z,98519.61
2018-01-05T03:50:48.424Z,98514.00
2018-01-05T03:51:54.621Z,98516.64
2018-01-05T03:53:00.816Z,98517.61
2018-01-05T03:54:06.964Z,98520.56
2018-01-05T03:55:12.827Z,98514.69
2018-01-05T03:56:19.023Z,98517.53
2018-01-05T03:57:25.156Z,98521.34
2018-01-05T03:58:31.302Z,98520.38
2018-01-05T03:59:37.505Z,98518.50
2018-01-05T04:00:43.711Z,98514.81
2018-01-05T04:01:49.892Z,98514.08
2018-01-05T04:02:56.911Z,98513.55
2018-01-05T04:04:03.040Z,98501.72
2018-01-05T04:05:09.340Z,98501.72
2018-01-05T04:06:15.453Z,98494.58
2018-01-05T04:07:21.744Z,98492.89
2018-01-05T04:08:27.942Z,98488.36
2018-01-05T04:09:34.188Z,98498.64
2018-01-05T04:10:40.398Z,98491.23
2018-01-05T04:11:46.777Z,98483.48
2018-01-05T04:12:53.009Z,98487.02
2018-01-05T04:13:58.882Z,98486.24
2018-01-05T04:15:04.360Z,98482.48
2018-01-05T04:16:10.238Z,98485.17
2018-01-05T04:17:16.479Z,98480.22
2018-01-05T04:18:22.739Z,98481.25
2018-01-05T04:19:28.604Z,98475.84
2018-01-05T04:20:34.798Z,98482.41
2018-01-05T04:21:41.030Z,98491.05
2018-01-05T04:22:46.910Z,98493.01
2018-01-05T04:23:52.462Z,98489.59
2018-01-05T04:24:58.595Z,98480.66
2018-01-05T04:26:04.737Z,98487.09
2018-01-05T04:27:10.964Z,98486.44
2018-01-05T04:28:17.629Z,98482.26
2018-01-05T04:29:25.047Z,98485.45
2018-01-05T04:30:32.014Z,98487.63
2018-01-05T04:31:39.858Z,98494.23
2018-01-05T04:32:46.891Z,98486.52
2018-01-05T04:33:54.675Z,98484.52
2018-01-05T04:35:01.905Z,98482.06
2018-01-05T04:36:09.255Z,98487.89
2018-01-05T04:37:16.499Z,98485.28
2018-01-05T04:38:23.882Z,98482.48
2018-01-05T04:39:31.362Z,98488.16
2018-01-05T04:40:36.912Z,98477.11
2018-01-05T04:41:43.112Z,98479.06
2018-01-05T04:42:49.267Z,98480.14
2018-01-05T04:43:55.472Z,98475.53
2018-01-05T04:45:01.635Z,98465.33
2018-01-05T04:46:07.777Z,98478.45
2018-01-05T04:47:13.967Z,98477.38
2018-01-05T04:48:20.149Z,98478.00
2018-01-05T04:49:26.096Z,98480.19
2018-01-05T04:50:32.346Z,98474.77
2018-01-05T04:51:38.231Z,98469.86
2018-01-05T04:52:44.930Z,98470.78
2018-01-05T04:53:50.864Z,98480.38
2018-01-05T04:54:56.771Z,98488.06
2018-01-05T04:56:02.058Z,98487.55
2018-01-05T04:57:08.337Z,98485.86
2018-01-05T04:58:14.451Z,98490.39
2018-01-05T04:59:20.605Z,98496.26
2018-01-05T05:00:26.514Z,98495.79
2018-01-05T05:01:32.705Z,98509.25
2018-01-05T05:02:38.607Z,98517.00
2018-01-05T05:03:44.581Z,98508.80
2018-01-05T05:04:50.462Z,98502.23
2018-01-05T05:05:56.379Z,98501.75
2018-01-05T05:07:02.274Z,98496.95
2018-01-05T05:08:08.169Z,98491.31
2018-01-05T05:09:14.636Z,98480.41
2018-01-05T05:10:20.800Z,98480.22
2018-01-05T05:11:26.681Z,98474.00
2018-01-05T05:12:32.676Z,98488.43
2018-01-05T05:13:38.591Z,98500.08
2018-01-05T05:14:47.449Z,98496.26
2018-01-05T05:15:53.343Z,98505.13
2018-01-05T05:16:59.287Z,98509.58
2018-01-05T05:18:05.372Z,98506.47
2018-01-05T05:19:11.350Z,98513.08
2018-01-05T05:20:17.250Z,98519.32
2018-01-05T05:21:23.151Z,98524.08
2018-01-05T05:22:29.144Z,98531.45
2018-01-05T05:23:35.075Z,98531.48
2018-01-05T05:24:41.011Z,98529.34
2018-01-05T05:25:47.426Z,98531.08
2018-01-05T05:26:53.328Z,98533.08
2018-01-05T05:27:59.203Z,98528.20
2018-01-05T05:29:05.064Z,98529.16
2018-01-05T05:30:10.347Z,98526.05
2018-01-05T05:31:16.307Z,98526.33
2018-01-05T05:32:22.289Z,98518.45
2018-01-05T05:33:28.238Z,98521.72
2018-01-05T05:34:34.368Z,98514.53
2018-01-05T05:35:39.781Z,98504.14
2018-01-05T05:36:45.760Z,98503.02
2018-01-05T05:37:50.990Z,98494.50
2018-01-05T05:38:57.045Z,98497.38
2018-01-05T05:40:02.966Z,98496.95
2018-01-05T05:41:08.991Z,98493.73
2018-01-05T05:42:14.937Z,98489.98
2018-01-05T05:43:20.891Z,98482.95
2018-01-05T05:44:26.806Z,98494.55
2018-01-05T05:45:32.670Z,98496.45
2018-01-05T05:46:38.609Z,98502.38
2018-01-05T05:47:44.561Z,98515.38
2018-01-05T05:48:50.482Z,98514.92
2018-01-05T05:49:56.366Z,98517.61
2018-01-05T05:51:02.251Z,98523.75
2018-01-05T05:52:08.165Z,98529.77
2018-01-05T05:53:14.063Z,98540.79
2018-01-05T05:54:19.920Z,98538.77
2018-01-05T05:55:25.835Z,98531.66
2018-01-05T05:56:31.683Z,98535.04
2018-01-05T05:57:37.588Z,98533.97
2018-01-05T05:58:43.539Z,98532.89
2018-01-05T05:59:49.415Z,98533.31
2018-01-05T06:00:55.503Z,98540.22
2018-01-05T06:02:01.477Z,98543.93
2018-01-05T06:03:07.362Z,98530.76
2018-01-05T06:04:13.324Z,98524.05
2018-01-05T06:05:19.626Z,98525.16
2018-01-05T06:06:25.491Z,98525.55
2018-01-05T06:07:31.375Z,98521.14
2018-01-05T06:08:37.292Z,98521.79
2018-01-05T06:09:43.167Z,98529.70
2018-01-05T06:10:49.075Z,98532.80
2018-01-05T06:11:55.066Z,98541.33
2018-01-05T06:13:00.999Z,98539.09
2018-01-05T06:14:07.051Z,98542.73
2018-01-05T06:15:13.069Z,98539.98
2018-01-05T06:16:19.340Z,98536.69
2018-01-05T06:17:25.197Z,98531.31
2018-01-05T06:18:31.172Z,98536.20
2018-01-05T06:19:37.583Z,98529.77
2018-01-05T06:20:45.412Z,98542.57
2018-01-05T06:21:51.295Z,98548.91
2018-01-05T06:22:57.219Z,98547.55
2018-01-05T06:24:03.138Z,98550.78
2018-01-05T06:25:09.257Z,98554.28
2018-01-05T06:26:15.334Z,98554.82
2018-01-05T06:27:21.415Z,98551.98
2018-01-05T06:28:27.291Z,98558.64
2018-01-05T06:29:33.145Z,98553.77
2018-01-05T06:30:39.071Z,98555.81
2018-01-05T06:31:44.964Z,98546.76
2018-01-05T06:32:50.795Z,98551.59
2018-01-05T06:33:56.360Z,98557.45
2018-01-05T06:35:02.243Z,98547.42
2018-01-05T06:36:08.180Z,98553.40
2018-01-05T06:37:14.126Z,98552.33
2018-01-05T06:38:20.035Z,98547.92
2018-01-05T06:39:25.914Z,98552.22
2018-01-05T06:40:31.838Z,98545.27
2018-01-05T06:41:37.712Z,98552.15
2018-01-05T06:42:43.944Z,98546.52
2018-01-05T06:43:49.941Z,98548.06
2018-01-05T06:44:56.324Z,98545.16
2018-01-05T06:46:08.123Z,98543.49
2018-01-05T06:47:14.082Z,98539.84
2018-01-05T06:48:20.145Z,98549.79
2018-01-05T06:49:27.337Z,98556.70
2018-01-05T06:50:33.857Z,98549.21
2018-01-05T06:51:39.735Z,98552.52
2018-01-05T06:52:45.676Z,98556.80
2018-01-05T06:53:51.597Z,98551.73
2018-01-05T06:54:57.540Z,98551.16
2018-01-05T06:56:03.426Z,98555.42
2018-01-05T06:57:09.396Z,98560.72
2018-01-05T06:58:15.298Z,98563.45
2018-01-05T06:59:21.519Z,98563.53
2018-01-05T07:00:27.583Z,98560.08
2018-01-05T07:01:33.597Z,98574.27
2018-01-05T07:02:39.520Z,98563.22
2018-01-05T07:03:51.349Z,98563.56
2018-01-05T07:04:57.024Z,98559.73
2018-01-05T07:06:02.922Z,98565.64
2018-01-05T07:07:12.084Z,98570.22
2018-01-05T07:08:17.955Z,98562.95
2018-01-05T07:09:23.798Z,98556.62
2018-01-05T07:10:29.800Z,98563.08
2018-01-05T07:11:36.205Z,98566.03
2018-01-05T07:12:42.085Z,98567.19
2018-01-05T07:13:48.283Z,98566.13
2018-01-05T07:14:54.315Z,98570.73
2018-01-05T07:16:00.237Z,98572.38
2018-01-05T07:17:05.771Z,98570.70
2018-01-05T07:18:11.670Z,98568.47
2018-01-05T07:19:19.215Z,98569.91
2018-01-05T07:20:27.647Z,98574.86
2018-01-05T07:21:33.721Z,98561.53
2018-01-05T07:22:39.614Z,98562.30
2018-01-05T07:23:45.573Z,98573.05
2018-01-05T07:24:51.474Z,98576.12
2018-01-05T07:25:57.346Z,98576.07
2018-01-05T07:27:03.238Z,98573.88
2018-01-05T07:28:09.088Z,98589.82
2018-01-05T07:29:14.955Z,98578.11
2018-01-05T07:30:20.859Z,98576.34
2018-01-05T07:31:26.715Z,98576.58
2018-01-05T07:32:32.686Z,98577.50
2018-01-05T07:33:38.621Z,98576.54
2018-01-05T07:34:44.493Z,98575.51
2018-01-05T07:35:50.367Z,98577.00
2018-01-05T07:36:56.383Z,98573.55
2018-01-05T07:38:02.227Z,98579.05
2018-01-05T07:39:08.106Z,98578.39
2018-01-05T07:40:14.087Z,98581.61
2018-01-05T07:41:20.164Z,98586.50
2018-01-05T07:42:26.124Z,98590.72
2018-01-05T07:43:32.085Z,98581.34
2018-01-05T07:44:37.950Z,98588.41
2018-01-05T07:45:43.849Z,98585.80
2018-01-05T07:46:49.732Z,98589.91
2018-01-05T07:47:55.606Z,98588.14
2018-01-05T07:49:01.515Z,98595.01
2018-01-05T07:50:07.446Z,98602.22
2018-01-05T07:51:13.476Z,98605.45
2018-01-05T07:52:19.523Z,98601.19
2018-01-05T07:53:25.404Z,98600.27
2018-01-05T07:54:31.338Z,98594.90
2018-01-05T07:55:37.234Z,98596.94
2018-01-05T07:56:43.070Z,98600.51
2018-01-05T07:57:48.992Z,98603.43
2018-01-05T07:58:54.960Z,98604.47
2018-01-05T08:00:00.893Z,98609.22
2018-01-05T08:01:06.833Z,98602.78
2018-01-05T08:02:12.832Z,98598.36
2018-01-05T08:03:20.614Z,98601.28
2018-01-05T08:04:26.784Z,98594.98
2018-01-05T08:05:32.875Z,98595.37
2018-01-05T08:06:39.222Z,98597.09
2018-01-05T08:07:45.144Z,98583.96
2018-01-05T08:08:51.026Z,98586.42
2018-01-05T08:09:57.200Z,98586.92
2018-01-05T08:11:03.646Z,98578.78
2018-01-05T08:12:10.520Z,98582.16
2018-01-05T08:13:16.874Z,98574.98
2018-01-05T08:14:22.830Z,98571.71
2018-01-05T08:15:28.713Z,98569.52
2018-01-05T08:16:34.571Z,98569.72
2018-01-05T08:17:40.438Z,98575.97
2018-01-05T08:18:46.350Z,98579.73
2018-01-05T08:19:52.263Z,98575.96
2018-01-05T08:20:57.821Z,98576.31
2018-01-05T08:22:03.698Z,98574.89
2018-01-05T08:23:09.571Z,98574.13
2018-01-05T08:24:16.137Z,98568.58
2018-01-05T08:25:22.221Z,98572.30
2018-01-05T08:26:28.291Z,98577.17
2018-01-05T08:27:34.276Z,98576.74
2018-01-05T08:28:39.984Z,98573.43
2018-01-05T08:29:45.842Z,98583.95
2018-01-05T08:30:51.755Z,98582.03
2018-01-05T08:31:57.682Z,98581.52
2018-01-05T08:33:03.565Z,98584.53
2018-01-05T08:34:09.624Z,98584.73
2018-01-05T08:35:15.503Z,98581.72
2018-01-05T08:36:21.502Z,98580.70
2018-01-05T08:37:28.382Z,98582.87
2018-01-05T08:38:34.231Z,98579.77
2018-01-05T08:39:40.082Z,98573.63
2018-01-05T08:40:45.986Z,98576.80
2018-01-05T08:41:51.851Z,98575.64
2018-01-05T08:42:57.836Z,98565.39
2018-01-05T08:44:03.824Z,98566.61
2018-01-05T08:45:09.682Z,98567.04
2018-01-05T08:46:15.902Z,98563.75
2018-01-05T08:47:22.008Z,98569.53
2018-01-05T08:48:27.964Z,98573.67
2018-01-05T08:49:33.851Z,98569.00
2018-01-05T08:50:39.847Z,98563.34
2018-01-05T08:51:45.707Z,98564.73
2018-01-05T08:52:51.572Z,98564.48
2018-01-05T08:54:00.246Z,98557.44
2018-01-05T08:55:06.172Z,98556.09
2018-01-05T08:56:12.062Z,98559.88
2018-01-05T08:57:17.900Z,98554.64
2018-01-05T08:58:23.752Z,98559.75
2018-01-05T08:59:29.613Z,98559.25
2018-01-05T09:00:35.513Z,98564.02
2018-01-05T09:01:41.434Z,98557.97
2018-01-05T09:02:47.319Z,98553.92
2018-01-05T09:03:53.264Z,98547.79
2018-01-05T09:04:59.373Z,98550.49
2018-01-05T09:06:05.971Z,98545.30
2018-01-05T09:07:12.049Z,98540.84
2018-01-05T09:08:17.980Z,98538.36
2018-01-05T09:09:23.851Z,98541.39
2018-01-05T09:10:29.728Z,98542.64
2018-01-05T09:11:35.654Z,98553.02
2018-01-05T09:12:41.533Z,98553.14
2018-01-05T09:13:47.475Z,98562.45
2018-01-05T09:14:53.407Z,98557.22
2018-01-05T09:15:59.357Z,98555.52
2018-01-05T09:17:05.629Z,98555.81
2018-01-05T09:18:17.448Z,98554.32
2018-01-05T09:19:23.740Z,98554.36
2018-01-05T09:20:29.742Z,98545.64
2018-01-05T09:21:35.830Z,98545.86
2018-01-05T09:22:42.406Z,98559.39
2018-01-05T09:23:48.688Z,98566.45
2018-01-05T09:24:54.815Z,98570.45
2018-01-05T09:26:00.690Z,98575.50
2018-01-05T09:27:06.640Z,98575.13
2018-01-05T09:28:12.997Z,98574.35
2018-01-05T09:29:18.898Z,98574.09
2018-01-05T09:30:24.466Z,98574.69
2018-01-05T09:31:30.324Z,98574.35
2018-01-05T09:32:36.273Z,98582.55
2018-01-05T09:33:42.169Z,98582.88
2018-01-05T09:34:48.003Z,98582.98
2018-01-05T09:35:53.849Z,98582.48
2018-01-05T09:37:04.327Z,98587.42
2018-01-05T09:38:12.214Z,98590.30
2018-01-05T09:39:20.179Z,98590.52
2018-01-05T09:40:26.048Z,98584.61
2018-01-05T09:41:31.926Z,98588.92
2018-01-05T09:42:37.921Z,98590.20
2018-01-05T09:43:43.777Z,98588.61
2018-01-05T09:44:49.724Z,98578.38
2018-01-05T09:45:55.627Z,98572.09
2018-01-05T09:47:01.490Z,98573.06
2018-01-05T09:48:06.994Z,98580.25
2018-01-05T09:49:12.946Z,98580.29
2018-01-05T09:50:18.867Z,98575.59
2018-01-05T09:51:24.812Z,98571.45
2018-01-05T09:52:30.745Z,98582.05
2018-01-05T09:53:36.652Z,98584.86
2018-01-05T09:54:42.504Z,98578.56
2018-01-05T09:55:48.382Z,98582.05
2018-01-05T09:56:54.614Z,98588.88
2018-01-05T09:58:00.548Z,98582.80
2018-01-05T09:59:07.046Z,98586.48
2018-01-05T10:00:13.439Z,98596.74
2018-01-05T10:01:19.374Z,98583.63
2018-01-05T10:02:25.290Z,98579.97
2018-01-05T10:03:30.934Z,98596.67
2018-01-05T10:04:37.020Z,98585.98
2018-01-05T10:05:42.869Z,98594.38
2018-01-05T10:06:48.387Z,98603.55
2018-01-05T10:07:54.509Z,98593.18
2018-01-05T10:09:00.476Z,98591.50
2018-01-05T10:10:07.033Z,98586.18
2018-01-05T10:11:13.031Z,98598.10
2018-01-05T10:12:18.911Z,98590.63
2018-01-05T10:13:24.854Z,98600.21
2018-01-05T10:14:30.800Z,98597.64
2018-01-05T10:15:36.830Z,98598.36
2018-01-05T10:16:42.729Z,98598.11
2018-01-05T10:17:48.642Z,98599.63
2018-01-05T10:18:54.532Z,98606.80
2018-01-05T10:20:00.426Z,98611.63
2018-01-05T10:21:06.362Z,98612.13
2018-01-05T10:22:12.219Z,98606.64
2018-01-05T10:23:18.139Z,98605.70
2018-01-05T10:24:24.041Z,98601.41
2018-01-05T10:25:29.946Z,98602.20
2018-01-05T10:26:35.791Z,98604.95
2018-01-05T10:27:41.653Z,98604.23
2018-01-05T10:28:47.780Z,98608.33
2018-01-05T10:29:53.856Z,98614.15
2018-01-05T10:30:59.807Z,98607.69
2018-01-05T10:32:05.526Z,98614.15
2018-01-05T10:33:11.468Z,98617.91
2018-01-05T10:34:17.354Z,98612.30
2018-01-05T10:35:23.287Z,98606.80
2018-01-05T10:36:29.228Z,98604.09
2018-01-05T10:37:35.266Z,98610.86
2018-01-05T10:38:41.210Z,98613.09
2018-01-05T10:39:47.047Z,98610.10
2018-01-05T10:40:53.647Z,98608.16
2018-01-05T10:42:00.056Z,98610.56
2018-01-05T10:43:07.492Z,98608.70
2018-01-05T10:44:15.563Z,98617.96
2018-01-05T10:45:23.314Z,98619.22
2018-01-05T10:46:30.574Z,98628.95
2018-01-05T10:47:37.770Z,98619.56
2018-01-05T10:48:44.733Z,98609.47
2018-01-05T10:49:51.964Z,98597.73
2018-01-05T10:51:00.611Z,98605.38
2018-01-05T10:52:07.375Z,98606.38
2018-01-05T10:53:14.530Z,98613.98
2018-01-05T10:54:22.527Z,98617.62
2018-01-05T10:55:29.364Z,98621.89
2018-01-05T10:56:35.879Z,98627.75
2018-01-05T10:57:42.072Z,98624.25
2018-01-05T10:58:51.935Z,98621.59
2018-01-05T10:59:59.036Z,98625.56
2018-01-05T11:01:06.048Z,98631.64
2018-01-05T11:02:13.520Z,98620.32
2018-01-05T11:03:20.875Z,98621.46
2018-01-05T11:04:28.311Z,98622.64
2018-01-05T11:05:35.245Z,98627.33
2018-01-05T11:06:42.317Z,98640.97
2018-01-05T11:07:49.320Z,98636.97
2018-01-05T11:08:57.362Z,98641.61
2018-01-05T11:10:06.412Z,98640.97
2018-01-05T11:11:13.988Z,98641.06
2018-01-05T11:12:21.148Z,98635.05
2018-01-05T11:13:28.199Z,98635.14
2018-01-05T11:14:35.554Z,98636.62
2018-01-05T11:15:42.363Z,98634.21
2018-01-05T11:16:49.018Z,98625.55
2018-01-05T11:17:57.015Z,98627.83
2018-01-05T11:19:04.054Z,98627.70
2018-01-05T11:20:10.805Z,98616.92
2018-01-05T11:21:17.896Z,98626.23
2018-01-05T11:22:24.687Z,98618.32
2018-01-05T11:23:33.540Z,98612.98
2018-01-05T11:24:40.536Z,98609.00
2018-01-05T11:25:47.656Z,98617.73
2018-01-05T11:26:54.784Z,98621.67
2018-01-05T11:28:01.395Z,98627.98
2018-01-05T11:29:08.862Z,98616.69
2018-01-05T11:30:15.554Z,98627.50
2018-01-05T11:31:22.646Z,98630.80
2018-01-05T11:32:29.948Z,98628.36
2018-01-05T11:33:37.003Z,98634.52
2018-01-05T11:34:44.959Z,98627.38
2018-01-05T11:35:52.073Z,98618.58
2018-01-05T11:36:58.987Z,98612.83
2018-01-05T11:38:05.905Z,98617.63
2018-01-05T11:39:14.751Z,98618.10
2018-01-05T11:40:21.689Z,98620.70
2018-01-05T11:41:29.221Z,98628.48
2018-01-05T11:42:36.486Z,98638.39
2018-01-05T11:43:43.121Z,98642.14
2018-01-05T11:44:51.072Z,98639.62
2018-01-05T11:45:56.981Z,98638.92
2018-01-05T11:47:04.617Z,98639.98
2018-01-05T11:48:11.791Z,98643.08
2018-01-05T11:49:19.655Z,98634.03
2018-01-05T11:50:26.606Z,98640.31
2018-01-05T11:51:35.208Z,98649.45
2018-01-05T11:52:42.329Z,98645.05
2018-01-05T11:53:48.854Z,98654.59
2018-01-05T11:54:55.528Z,98648.52
2018-01-05T11:56:02.713Z,98649.91
2018-01-05T11:57:10.329Z,98642.97
2018-01-05T11:58:17.569Z,98646.38
2018-01-05T11:59:24.162Z,98652.45
2018-01-05T12:00:31.923Z,98646.44
2018-01-05T12:01:40.573Z,98645.34
2018-01-05T12:02:47.754Z,98644.92
2018-01-05T12:03:55.141Z,98651.34
2018-01-05T12:05:02.331Z,98651.34
2018-01-05T12:06:09.683Z,98660.25
2018-01-05T12:07:17.003Z,98653.95
2018-01-05T12:08:24.684Z,98661.27
2018-01-05T12:09:32.595Z,98659.00
2018-01-05T12:10:39.807Z,98666.09
2018-01-05T12:11:47.090Z,98659.69
2018-01-05T12:12:55.391Z,98667.83
2018-01-05T12:14:02.671Z,98661.69
2018-01-05T12:15:10.294Z,98660.89
2018-01-05T12:16:19.478Z,98669.74
2018-01-05T12:17:26.864Z,98667.80
2018-01-05T12:18:34.252Z,98668.23
2018-01-05T12:19:42.424Z,98670.52
2018-01-05T12:20:49.213Z,98674.53
2018-01-05T12:21:55.798Z,98673.41
2018-01-05T12:23:03.761Z,98670.40
2018-01-05T12:24:10.988Z,98659.94
2018-01-05T12:25:18.161Z,98668.36
2018-01-05T12:26:24.854Z,98679.24
2018-01-05T12:27:32.320Z,98675.80
2018-01-05T12:28:40.087Z,98678.29
2018-01-05T12:29:47.920Z,98684.42
2018-01-05T12:30:55.383Z,98686.45
2018-01-05T12:32:02.898Z,98688.19
2018-01-05T12:33:09.637Z,98678.11
2018-01-05T12:34:15.860Z,98688.72
2018-01-05T12:35:22.060Z,98691.97
2018-01-05T12:36:28.968Z,98693.83
2018-01-05T12:37:36.428Z,98691.89
2018-01-05T12:38:43.853Z,98692.86
2018-01-05T12:39:51.616Z,98701.45
2018-01-05T12:40:58.631Z,98710.38
2018-01-05T12:42:05.473Z,98708.06
2018-01-05T12:43:12.932Z,98714.10
2018-01-05T12:44:20.711Z,98719.56
2018-01-05T12:45:28.049Z,98715.59
2018-01-05T12:46:35.412Z,98723.66
2018-01-05T12:47:42.732Z,98734.23
2018-01-05T12:48:49.409Z,98725.05
2018-01-05T12:49:56.952Z,98733.72
2018-01-05T12:51:03.923Z,98728.84
2018-01-05T12:52:11.426Z,98733.45
2018-01-05T12:53:18.453Z,98744.23
2018-01-05T12:54:25.714Z,98744.05
2018-01-05T12:55:33.089Z,98740.28
2018-01-05T12:56:45.872Z,98741.06
2018-01-05T12:57:53.747Z,98745.63
2018-01-05T12:59:00.537Z,98745.78
2018-01-05T13:00:08.028Z,98751.23